Terminal Aerodrome Forecast
Issued by NWS Wichita, KS

Home | Current Version | Previous Version | Text Only | Print | Product List | Glossary Off
Versions: 1 2 3 4 5 6 7 8 9 10 11 12 13 14

263
FTUS43 KICT 150520
TAFICT
TAF
KICT 150520Z 1506/1606 34022G30KT P6SM FEW080 SCT150
     FM151400 35014KT P6SM SKC
     FM160000 33004KT P6SM SKC=

USA.gov is the U.S. government's official web portal to all federal, state and local government web resources and services.